Time;durP1;ratioP1;P1;durP2;ratioP2;P2;SDS_P1;SDS_P2;PMS_P1;PMS_P2;Temp;Humidity;BMP_temperature;BMP_pressure;BME280_temperature;BME280_humidity;BME280_pressure;Samples;Min_cycle;Max_cycle;Signal;HPM_P1;HPM_P2
2021/06/28 00:00:16;;;;;;;5.25;2.13;;;;;;;23.53;66.51;100812.06;5132825;27;20051;-56
2021/06/28 00:02:44;;;;;;;4.55;2.30;;;;;;;23.45;66.82;100813.25;5114503;27;20122;-56
2021/06/28 00:05:14;;;;;;;5.43;2.70;;;;;;;23.49;66.83;100807.63;5133183;27;20047;-56
2021/06/28 00:07:42;;;;;;;5.80;2.10;;;;;;;23.53;66.85;100812.06;5133306;27;20047;-57
2021/06/28 00:10:13;;;;;;;9.25;2.42;;;;;;;23.56;66.40;100808.47;5132904;27;20054;-55
2021/06/28 00:12:41;;;;;;;5.80;2.10;;;;;;;23.52;66.75;100807.63;5132574;27;20040;-58
2021/06/28 00:15:14;;;;;;;4.28;2.20;;;;;;;23.50;66.44;100807.25;5132593;27;20050;-58
2021/06/28 00:17:42;;;;;;;10.45;2.13;;;;;;;23.46;66.72;100809.25;5133110;27;20234;-60
2021/06/28 00:20:12;;;;;;;4.63;2.45;;;;;;;23.47;66.69;100802.41;5132912;27;20051;-58
2021/06/28 00:22:39;;;;;;;6.15;2.42;;;;;;;23.42;67.13;100800.00;5132040;27;20470;-59
2021/06/28 00:25:09;;;;;;;4.18;2.30;;;;;;;23.45;66.69;100798.41;5132847;27;20058;-56
2021/06/28 00:27:37;;;;;;;6.10;2.08;;;;;;;23.37;67.30;100797.56;5133262;27;20051;-57
2021/06/28 00:30:26;;;;;;;6.60;2.28;;;;;;;23.47;66.94;100793.19;5117203;27;20051;-58
2021/06/28 00:32:56;;;;;;;4.35;2.10;;;;;;;23.48;66.76;100780.72;5133257;27;20039;-57
2021/06/28 00:35:23;;;;;;;;;;;;;;;23.41;66.92;100768.25;5132596;27;20039;-54
2021/06/28 00:37:50;;;;;;;5.57;2.00;;;;;;;23.46;66.93;100758.63;5132354;27;19920;-57
2021/06/28 00:40:20;;;;;;;4.75;2.15;;;;;;;23.49;66.78;100746.59;5132057;28;20055;-56
2021/06/28 00:42:49;;;;;;;5.30;2.03;;;;;;;23.49;66.62;100742.97;5132590;27;20439;-60
2021/06/28 00:45:22;;;;;;;5.05;2.40;;;;;;;23.49;66.51;100746.59;5133121;27;20055;-57
2021/06/28 00:47:51;;;;;;;3.50;2.10;;;;;;;23.55;66.57;100739.38;5132133;28;20051;-54
2021/06/28 00:54:50;;;;;;;5.30;2.17;;;;;;;23.59;65.89;100734.53;5132128;28;20043;-56
2021/06/28 00:57:17;;;;;;;3.42;1.60;;;;;;;23.60;65.93;100730.53;5131570;28;20489;-58
2021/06/28 00:59:44;;;;;;;2.97;1.85;;;;;;;23.67;65.78;100718.47;5113659;28;20153;-57
2021/06/28 01:02:12;;;;;;;2.95;1.75;;;;;;;23.64;65.66;100717.25;5114692;28;20047;-58
2021/06/28 01:04:39;;;;;;;4.68;1.83;;;;;;;23.61;65.42;100711.63;5132879;28;20065;-55
2021/06/28 01:07:06;;;;;;;3.75;1.58;;;;;;;23.54;65.81;100711.66;5131842;28;20398;-54
2021/06/28 01:09:35;;;;;;;3.25;1.60;;;;;;;23.48;66.06;100702.00;5131856;28;20047;-55
2021/06/28 01:12:04;;;;;;;5.35;1.42;;;;;;;23.45;65.40;100697.97;5131798;28;20055;-57
2021/06/28 01:14:32;;;;;;;4.35;1.65;;;;;;;23.50;65.70;100686.34;5132704;28;20058;-56
2021/06/28 01:16:59;;;;;;;3.38;1.55;;;;;;;23.58;65.14;100673.06;5114128;28;20059;-53
2021/06/28 01:19:32;;;;;;;4.90;1.45;;;;;;;23.52;64.98;100669.84;5132494;28;20050;-55
2021/06/28 01:22:01;;;;;;;2.55;1.50;;;;;;;23.48;65.19;100677.50;5132520;28;20067;-57
2021/06/28 01:24:28;;;;;;;6.80;1.60;;;;;;;23.43;65.25;100720.88;5113853;28;20051;-56
2021/06/28 01:26:56;;;;;;;2.55;1.58;;;;;;;23.40;65.56;100727.28;5113680;28;20048;-60
2021/06/28 01:29:24;;;;;;;3.03;1.30;;;;;;;23.49;65.29;100740.16;5114335;28;20109;-58
2021/06/28 01:31:51;;;;;;;3.78;1.50;;;;;;;23.48;64.81;100750.63;5132043;28;20055;-57
2021/06/28 01:34:18;;;;;;;4.40;1.48;;;;;;;23.37;64.79;100750.59;5132513;28;20047;-56
2021/06/28 01:36:50;;;;;;;2.28;1.20;;;;;;;23.27;65.33;100750.53;5132200;28;20043;-59
2021/06/28 01:39:20;;;;;;;3.00;1.58;;;;;;;23.36;65.30;100756.63;5132258;28;20052;-56
2021/06/28 01:41:47;;;;;;;2.17;1.30;;;;;;;23.39;64.83;100751.00;5113448;27;20492;-57
2021/06/28 01:44:15;;;;;;;3.80;1.10;;;;;;;23.36;64.98;100751.00;5134616;27;20043;-58
2021/06/28 01:46:42;;;;;;;2.88;1.20;;;;;;;23.23;65.30;100756.16;5135546;27;20070;-58
2021/06/28 01:49:10;;;;;;;2.35;1.15;;;;;;;23.30;64.88;100750.56;5135435;27;20043;-55
2021/06/28 01:51:39;;;;;;;3.85;1.20;;;;;;;23.37;64.73;100738.53;5136828;27;20047;-56
2021/06/28 01:54:13;;;;;;;5.95;1.27;;;;;;;23.28;65.21;100735.31;5118670;27;20043;-62
2021/06/28 01:56:40;;;;;;;;;;;;;;;23.29;64.66;100736.94;5136362;27;20397;-57
2021/06/28 01:59:07;;;;;;;6.10;1.17;;;;;;;23.26;64.16;100755.34;5135740;27;19923;-55
2021/06/28 02:01:35;;;;;;;1.55;0.93;;;;;;;23.22;65.11;100762.19;5135337;27;20486;-57
2021/06/28 02:04:02;;;;;;;3.10;1.00;;;;;;;23.36;64.40;100762.25;5135684;27;20493;-54
2021/06/28 02:06:29;;;;;;;1.02;0.80;;;;;;;23.46;63.97;100761.44;5134654;27;20039;-56
2021/06/28 02:08:57;;;;;;;4.88;1.10;;;;;;;23.46;63.64;100755.81;5135506;27;20043;-58
2021/06/28 02:11:24;;;;;;;1.58;0.90;;;;;;;23.49;63.65;100752.22;5134920;27;20062;-58
2021/06/28 02:13:52;;;;;;;1.17;0.82;;;;;;;23.37;63.49;100736.53;5135683;27;20122;-55
2021/06/28 02:16:19;;;;;;;4.28;1.27;;;;;;;23.40;63.21;100729.28;5134641;27;20390;-58
2021/06/28 02:18:49;;;;;;;1.90;0.95;;;;;;;23.39;63.31;100728.50;5134940;27;20493;-60
2021/06/28 02:26:03;;;;;;;1.42;0.95;;;;;;;23.41;63.08;100709.22;5134770;27;20054;-54
2021/06/28 02:28:33;;;;;;;1.73;0.88;;;;;;;23.26;63.68;100710.38;5134674;27;20046;-58
2021/06/28 02:31:02;;;;;;;4.20;1.00;;;;;;;23.24;63.64;100715.59;5134528;27;20379;-56
2021/06/28 02:33:30;;;;;;;2.58;0.88;;;;;;;23.28;63.68;100726.88;5116512;27;20482;-59
2021/06/28 02:35:58;;;;;;;2.63;0.88;;;;;;;23.27;63.74;100722.44;5135296;27;20047;-58
2021/06/28 02:43:03;;;;;;;1.48;0.95;;;;;;;23.30;63.88;100750.56;5114422;28;20048;-58
2021/06/28 02:45:30;;;;;;;3.30;1.00;;;;;;;23.33;63.55;100760.22;5113558;28;20047;-58
2021/06/28 02:47:58;;;;;;;2.88;0.90;;;;;;;23.35;63.47;100771.88;5113704;28;20055;-58
2021/06/28 02:50:25;;;;;;;1.83;0.90;;;;;;;23.36;63.42;100787.53;5113708;28;20045;-58
2021/06/28 02:57:33;;;;;;;3.50;1.00;;;;;;;23.21;63.92;100778.22;5114256;28;20039;-58
2021/06/28 03:00:04;;;;;;;2.22;0.85;;;;;;;23.14;64.25;100752.09;5114323;28;20108;-54
2021/06/28 03:02:31;;;;;;;3.83;1.10;;;;;;;23.14;64.54;100752.91;5114475;28;20051;-55
2021/06/28 03:04:59;;;;;;;4.80;1.00;;;;;;;23.22;64.39;100762.19;5095406;28;20043;-54
2021/06/28 03:07:26;;;;;;;6.03;1.00;;;;;;;23.17;63.77;100763.34;5113442;28;20058;-57
2021/06/28 03:09:54;;;;;;;3.63;0.88;;;;;;;23.22;63.74;100760.16;5113927;28;20040;-57
2021/06/28 03:12:22;;;;;;;2.03;0.98;;;;;;;23.25;63.77;100742.50;5114248;28;20047;-58
2021/06/28 03:14:50;;;;;;;4.07;0.90;;;;;;;23.23;64.04;100744.91;5113910;28;20050;-57
2021/06/28 03:17:17;;;;;;;5.05;0.80;;;;;;;23.23;63.73;100738.47;5114290;28;20040;-58
2021/06/28 03:19:44;;;;;;;2.47;1.00;;;;;;;23.27;63.29;100745.72;5095228;28;20044;-59
2021/06/28 03:22:12;;;;;;;3.55;0.88;;;;;;;23.26;63.58;100735.69;5113661;28;20052;-58
2021/06/28 03:24:39;;;;;;;4.72;0.90;;;;;;;23.32;63.31;100713.63;5113310;28;20058;-57
2021/06/28 03:27:07;;;;;;;5.50;1.05;;;;;;;23.36;63.09;100698.38;5113780;28;20063;-58
2021/06/28 03:29:37;;;;;;;3.58;1.10;;;;;;;23.29;63.07;100720.06;5095097;28;20047;-58
2021/06/28 03:32:04;;;;;;;7.20;1.13;;;;;;;23.33;62.98;100732.91;5113274;28;20051;-58
2021/06/28 03:34:32;;;;;;;1.75;0.90;;;;;;;23.37;62.86;100728.09;5113417;28;20378;-58
2021/06/28 03:36:59;;;;;;;5.40;1.27;;;;;;;23.47;62.08;100734.16;5113318;28;20055;-59
2021/06/28 03:39:26;;;;;;;4.18;1.00;;;;;;;23.29;62.64;100734.13;5112702;28;20466;-59
2021/06/28 03:41:55;;;;;;;3.92;1.10;;;;;;;23.35;62.72;100724.06;5125671;27;20062;-57
2021/06/28 03:44:22;;;;;;;3.30;1.10;;;;;;;23.28;62.65;100724.88;5133938;27;20039;-58
2021/06/28 03:46:50;;;;;;;6.30;1.05;;;;;;;23.23;63.19;100716.00;5133189;27;20047;-52
2021/06/28 03:49:17;;;;;;;2.45;0.90;;;;;;;23.16;63.20;100716.78;5132978;27;20039;-54
2021/06/28 03:51:45;;;;;;;3.63;0.93;;;;;;;23.11;63.36;100713.56;5133703;27;20047;-56
2021/06/28 03:58:44;;;;;;;3.90;0.88;;;;;;;23.13;63.64;100722.41;5049396;28;20400;-56
2021/06/28 04:01:11;;;;;;;3.63;1.10;;;;;;;23.20;62.91;100728.84;5049503;28;20041;-59
2021/06/28 04:03:39;;;;;;;4.90;1.00;;;;;;;23.01;63.49;100731.97;5050236;28;20076;-58
2021/06/28 04:06:07;;;;;;;4.55;1.00;;;;;;;23.15;63.56;100737.66;5049414;28;20064;-60
2021/06/28 04:13:02;;;;;;;5.00;0.95;;;;;;;23.12;63.55;100730.03;5128586;27;20058;-59
2021/06/28 04:15:29;;;;;;;2.58;0.90;;;;;;;23.14;63.31;100732.44;5133023;27;20055;-60
2021/06/28 04:17:57;;;;;;;5.97;1.02;;;;;;;23.18;62.83;100736.88;5132899;27;20490;-62
2021/06/28 04:20:27;;;;;;;3.08;1.17;;;;;;;23.16;63.12;100715.97;5132776;27;20402;-51
2021/06/28 04:27:02;;;;;;;5.47;1.08;;;;;;;23.11;63.03;100733.22;5133253;27;19915;-57
2021/06/28 04:29:30;;;;;;;3.90;1.00;;;;;;;23.12;63.55;100718.78;5132398;27;20513;-57
2021/06/28 04:31:57;;;;;;;6.18;1.10;;;;;;;23.14;62.92;100736.06;5132392;27;20062;-58
2021/06/28 04:34:25;;;;;;;3.33;1.08;;;;;;;23.06;63.25;100742.88;5132281;27;20043;-58
2021/06/28 04:36:52;;;;;;;2.35;1.02;;;;;;;23.15;63.01;100756.53;5132055;27;20485;-57
2021/06/28 04:43:55;;;;;;;2.38;0.90;;;;;;;23.17;62.75;100762.56;5112349;28;20044;-56
2021/06/28 04:46:23;;;;;;;4.63;1.42;;;;;;;23.14;63.03;100754.91;5112402;28;20056;-59
2021/06/28 04:48:50;;;;;;;7.82;1.52;;;;;;;23.19;62.55;100771.38;5111792;28;20051;-59
2021/06/28 04:51:18;;;;;;;6.80;1.02;;;;;;;23.23;62.34;100763.78;5094247;28;20054;-57
2021/06/28 04:58:21;;;;;;;4.90;1.02;;;;;;;23.24;62.42;100774.63;5112168;28;20047;-56
2021/06/28 05:00:49;;;;;;;5.60;1.20;;;;;;;23.21;62.54;100774.59;5111693;28;20054;-58
2021/06/28 05:03:16;;;;;;;5.05;1.13;;;;;;;23.16;62.56;100769.38;5111669;28;20051;-57
2021/06/28 05:05:44;;;;;;;3.47;1.13;;;;;;;23.07;62.63;100775.38;5111660;28;20142;-59
2021/06/28 05:08:11;;;;;;;4.95;1.00;;;;;;;23.12;62.82;100772.16;5093741;28;20044;-56
2021/06/28 05:10:38;;;;;;;9.65;1.45;;;;;;;23.09;62.63;100780.59;5112012;28;20051;-58
2021/06/28 05:13:06;;;;;;;7.95;1.30;;;;;;;23.09;62.76;100778.59;5111341;28;20062;-58
2021/06/28 05:15:33;;;;;;;6.40;1.52;;;;;;;23.19;62.42;100774.19;5112015;28;20067;-59
2021/06/28 05:18:01;;;;;;;5.53;1.15;;;;;;;23.16;62.67;100778.63;5114769;28;20395;-57
2021/06/28 05:20:29;;;;;;;3.15;1.00;;;;;;;23.18;62.72;100776.22;5116283;28;20047;-60
2021/06/28 05:27:37;;;;;;;5.53;1.10;;;;;;;23.04;62.73;100787.41;5115891;28;20363;-58
2021/06/28 05:30:08;;;;;;;7.93;1.13;;;;;;;23.09;62.85;100781.41;5115003;28;20054;-59
2021/06/28 05:32:36;;;;;;;5.50;1.48;;;;;;;23.04;62.83;100778.97;5115069;28;20379;-58
2021/06/28 05:35:05;;;;;;;7.15;1.33;;;;;;;23.05;62.74;100788.19;5115080;28;20379;-57
2021/06/28 05:37:33;;;;;;;7.75;1.10;;;;;;;23.07;62.92;100781.00;5115188;28;20047;-58
2021/06/28 05:40:05;;;;;;;5.25;1.23;;;;;;;23.21;62.37;100786.66;5098028;28;20360;-59
2021/06/28 05:42:34;;;;;;;6.45;1.38;;;;;;;23.25;62.00;100769.81;5124677;27;20062;-57
2021/06/28 05:45:03;;;;;;;2.40;1.10;;;;;;;23.24;62.02;100768.22;5135497;27;20062;-59
2021/06/28 05:47:32;;;;;;;6.07;1.38;;;;;;;23.30;62.09;100773.06;5135523;27;20069;-57
2021/06/28 05:50:00;;;;;;;9.02;1.10;;;;;;;23.22;62.05;100759.38;5135576;27;20051;-59
2021/06/28 05:52:28;;;;;;;6.38;1.02;;;;;;;23.17;62.09;100748.50;5135472;27;20062;-56
2021/06/28 05:59:34;;;;;;;6.88;1.00;;;;;;;23.29;62.19;100762.22;5135431;27;20047;-57
2021/06/28 06:02:02;;;;;;;5.80;1.42;;;;;;;23.29;61.86;100757.38;5135304;27;20043;-58
2021/06/28 06:04:29;;;;;;;13.10;1.38;;;;;;;23.21;62.06;100749.31;5135245;27;20043;-56
2021/06/28 06:06:58;;;;;;;3.95;1.35;;;;;;;23.21;61.88;100746.50;5136084;27;20054;-54
2021/06/28 06:09:25;;;;;;;6.85;1.38;;;;;;;23.27;62.08;100768.22;5135302;27;20047;-57
2021/06/28 06:11:53;;;;;;;8.95;1.27;;;;;;;23.21;61.52;100771.78;5135225;27;20053;-57
2021/06/28 06:14:20;;;;;;;5.95;1.30;;;;;;;23.31;61.74;100780.28;5151508;27;20069;-57
2021/06/28 06:16:49;;;;;;;6.30;1.60;;;;;;;23.40;63.26;100789.16;5135207;27;20478;-56
2021/06/28 06:19:17;;;;;;;10.48;2.38;;;;;;;23.52;65.54;100790.75;5134655;27;20048;-55
2021/06/28 06:21:44;;;;;;;19.20;5.70;;;;;;;23.47;72.22;100802.41;5134606;27;20046;-56
2021/06/28 06:24:12;;;;;;;16.60;3.05;;;;;;;23.44;71.65;100800.41;5134550;27;20050;-54
2021/06/28 06:26:39;;;;;;;13.73;2.40;;;;;;;23.37;70.78;100811.63;5135340;27;20047;-56
2021/06/28 06:29:07;;;;;;;17.33;2.28;;;;;;;23.22;70.63;100824.00;5134712;27;20050;-57
2021/06/28 06:31:34;;;;;;;17.45;2.67;;;;;;;23.29;71.66;100827.66;5135342;27;20054;-58
2021/06/28 06:34:02;;;;;;;11.80;2.25;;;;;;;23.26;70.88;100811.56;5134683;27;20063;-54
2021/06/28 06:36:29;;;;;;;13.48;2.08;;;;;;;23.28;70.47;100811.19;5116258;27;20060;-56
2021/06/28 06:38:56;;;;;;;9.85;1.85;;;;;;;23.55;73.57;100814.50;5135164;27;20043;-59
2021/06/28 06:41:24;;;;;;;13.68;2.28;;;;;;;23.54;72.80;100812.88;5134094;27;20056;-57
2021/06/28 06:43:51;;;;;;;12.02;2.10;;;;;;;23.40;69.65;100822.06;5134942;27;20055;-59
2021/06/28 06:46:19;;;;;;;8.85;1.83;;;;;;;23.45;71.10;100809.66;5131341;27;20047;-58
2021/06/28 06:48:46;;;;;;;17.40;2.35;;;;;;;23.39;70.58;100812.03;5134151;27;20051;-58
2021/06/28 06:51:14;;;;;;;8.73;1.98;;;;;;;23.34;70.61;100809.63;5134882;27;20058;-54
2021/06/28 06:53:41;;;;;;;15.10;2.53;;;;;;;23.55;67.24;100820.94;5134431;27;20055;-51
2021/06/28 06:56:09;;;;;;;7.25;2.05;;;;;;;22.11;67.03;100832.13;5133881;27;20055;-54
2021/06/28 06:58:37;;;;;;;14.55;1.88;;;;;;;21.61;65.57;100830.03;5098853;27;20054;-59
2021/06/28 07:01:05;;;;;;;10.85;2.00;;;;;;;21.65;67.22;100833.69;5134452;27;20051;-58
2021/06/28 07:03:33;;;;;;;11.43;1.70;;;;;;;22.27;65.20;100826.25;5133767;27;20591;-56
2021/06/28 07:06:00;;;;;;;10.38;2.25;;;;;;;22.29;64.73;100833.09;5133653;27;20058;-51
2021/06/28 07:08:28;;;;;;;14.73;2.13;;;;;;;22.21;65.39;100817.38;5133650;27;20051;-54
2021/06/28 07:10:55;;;;;;;7.45;1.40;;;;;;;22.48;64.61;100815.16;5133734;27;20051;-52
2021/06/28 07:13:22;;;;;;;12.60;2.00;;;;;;;22.36;64.01;100818.28;5133521;27;20051;-53
2021/06/28 07:15:50;;;;;;;9.18;1.88;;;;;;;22.50;62.14;100823.19;5133229;27;20055;-55
2021/06/28 07:18:17;;;;;;;14.52;2.58;;;;;;;22.38;62.78;100829.13;5134133;27;20043;-52
2021/06/28 07:20:44;;;;;;;14.63;1.70;;;;;;;22.39;64.40;100839.19;5134245;27;20047;-55
2021/06/28 07:23:12;;;;;;;10.48;1.88;;;;;;;22.65;63.14;100836.19;5133626;27;20417;-57
2021/06/28 07:30:09;;;;;;;12.02;2.13;;;;;;;23.39;59.50;100828.91;5132753;27;20047;-52
2021/06/28 07:32:37;;;;;;;11.57;2.05;;;;;;;23.06;61.47;100827.16;5133924;27;20505;-54
2021/06/28 07:35:10;;;;;;;9.88;2.03;;;;;;;23.34;60.52;100832.91;5134319;27;20047;-53
2021/06/28 07:37:38;;;;;;;7.22;1.75;;;;;;;23.61;59.50;100833.38;5133946;27;20047;-52
2021/06/28 07:40:07;;;;;;;13.65;2.05;;;;;;;23.93;57.85;100827.81;5132707;27;20079;-50
2021/06/28 07:42:34;;;;;;;8.52;1.90;;;;;;;23.99;57.72;100829.84;5133165;27;20378;-56
2021/06/28 07:45:03;;;;;;;14.95;1.55;;;;;;;23.85;57.92;100838.22;5133775;27;20490;-57
2021/06/28 07:47:30;;;;;;;12.93;1.83;;;;;;;23.64;57.83;100841.00;5133428;27;20052;-55
2021/06/28 07:49:58;;;;;;;12.85;1.80;;;;;;;23.65;58.84;100850.25;5132721;27;20055;-55
2021/06/28 07:52:26;;;;;;;6.57;1.45;;;;;;;23.73;57.90;100844.25;5133318;27;20047;-53
2021/06/28 07:54:54;;;;;;;8.00;1.60;;;;;;;23.76;58.32;100848.28;5132558;27;20081;-61
2021/06/28 07:57:21;;;;;;;10.13;1.90;;;;;;;23.88;56.90;100851.53;5149294;27;20066;-58
2021/06/28 07:59:49;;;;;;;8.35;1.73;;;;;;;23.86;55.84;100842.66;5132395;27;20259;-60
2021/06/28 08:02:16;;;;;;;10.80;1.20;;;;;;;23.71;55.82;100837.44;5132557;27;20347;-59
2021/06/28 08:04:45;;;;;;;8.75;1.50;;;;;;;23.89;56.13;100838.25;5132696;27;20058;-59
2021/06/28 08:07:12;;;;;;;7.45;1.55;;;;;;;23.86;55.82;100842.66;5130441;27;20043;-60
2021/06/28 08:10:01;;;;;;;6.97;1.52;;;;;;;24.06;55.32;100840.31;5132561;27;20043;-58
2021/06/28 08:12:28;;;;;;;9.25;1.52;;;;;;;24.01;56.37;100838.69;5132429;27;20051;-57
2021/06/28 08:14:56;;;;;;;14.38;1.70;;;;;;;23.76;56.92;100843.47;5132215;27;20054;-59
2021/06/28 08:17:25;;;;;;;9.85;1.42;;;;;;;23.44;57.93;100839.75;5132933;27;20047;-59
2021/06/28 08:19:52;;;;;;;14.05;1.83;;;;;;;23.20;57.68;100838.47;5132287;27;20050;-53
2021/06/28 08:22:20;;;;;;;7.60;1.40;;;;;;;23.20;59.08;100835.66;5132282;27;20482;-59
2021/06/28 08:24:47;;;;;;;5.43;1.17;;;;;;;23.08;57.13;100844.41;5132174;27;20051;-60
2021/06/28 08:27:15;;;;;;;7.60;1.05;;;;;;;22.90;59.16;100845.53;5132174;27;20047;-58
2021/06/28 08:29:43;;;;;;;9.73;1.30;;;;;;;23.25;58.89;100840.88;5132447;27;20131;-59
2021/06/28 08:32:11;;;;;;;7.90;1.60;;;;;;;23.52;58.40;100840.59;5113937;27;20051;-58
2021/06/28 08:34:40;;;;;;;6.43;1.80;;;;;;;23.27;58.75;100843.31;5132240;27;20066;-65
2021/06/28 08:37:10;;;;;;;11.07;1.75;;;;;;;23.50;58.19;100832.56;5131398;27;20043;-59
2021/06/28 08:39:37;;;;;;;7.97;1.50;;;;;;;23.61;57.85;100841.00;5131146;27;20039;-57
2021/06/28 08:42:06;;;;;;;8.60;1.30;;;;;;;23.49;58.55;100841.38;5112657;27;20066;-59
2021/06/28 08:44:34;;;;;;;7.67;1.77;;;;;;;23.75;57.23;100841.84;5131370;27;20062;-60
2021/06/28 08:47:04;;;;;;;7.45;1.83;;;;;;;23.31;57.99;100836.50;5131989;27;20046;-61
2021/06/28 08:49:34;;;;;;;8.33;1.13;;;;;;;23.71;58.21;100838.22;5131061;28;20281;-60
2021/06/28 08:52:01;;;;;;;;;;;;;;;23.79;57.33;100836.22;5114260;28;20051;-59
2021/06/28 08:54:29;;;;;;;7.68;1.55;;;;;;;23.08;57.45;100838.78;5131127;28;19919;-62
2021/06/28 08:56:57;;;;;;;7.50;1.25;;;;;;;23.44;58.31;100839.75;5132097;28;20052;-60
2021/06/28 08:59:25;;;;;;;7.03;1.52;;;;;;;23.74;57.83;100829.00;5132125;28;20043;-59
2021/06/28 09:01:53;;;;;;;8.13;1.02;;;;;;;23.95;57.20;100831.03;5131625;28;20047;-57
2021/06/28 09:04:21;;;;;;;11.38;1.50;;;;;;;23.98;56.73;100831.03;5113501;28;20391;-59
2021/06/28 09:06:49;;;;;;;4.10;1.40;;;;;;;23.94;56.97;100829.41;5131072;28;20054;-61
2021/06/28 09:09:17;;;;;;;6.45;1.33;;;;;;;23.61;57.36;100836.19;5096294;28;20117;-57
2021/06/28 09:11:50;;;;;;;6.30;1.25;;;;;;;23.50;56.39;100831.75;5130970;28;20050;-59
2021/06/28 09:14:20;;;;;;;6.80;1.20;;;;;;;23.20;58.96;100838.47;5131347;28;20051;-57
2021/06/28 09:16:48;;;;;;;8.70;1.58;;;;;;;23.63;57.59;100842.22;5096359;28;20502;-56
2021/06/28 09:19:18;;;;;;;6.95;1.48;;;;;;;23.78;56.92;100843.84;5131009;28;20050;-58
2021/06/28 09:21:49;;;;;;;;;;;;;;;23.87;56.66;100840.66;5113626;28;20070;-57
2021/06/28 09:28:49;;;;;;;6.25;1.23;;;;;;;23.88;56.46;100847.91;5130446;28;20043;-60
2021/06/28 09:31:33;;;;;;;5.93;1.52;;;;;;;23.84;56.07;100842.25;5131264;28;20054;-55
2021/06/28 09:34:17;;;;;;;6.18;1.35;;;;;;;23.82;55.14;100847.47;5131062;28;20050;-57
2021/06/28 09:36:48;;;;;;;5.57;1.40;;;;;;;23.23;57.34;100848.91;5131648;28;20039;-57
2021/06/28 09:39:30;;;;;;;5.45;1.52;;;;;;;23.38;57.33;100858.22;5131584;28;20516;-58
2021/06/28 09:46:21;;;;;;;7.65;1.13;;;;;;;23.95;55.79;100865.59;5110834;28;20048;-56
2021/06/28 09:48:51;;;;;;;6.73;1.17;;;;;;;24.06;55.46;100865.66;5110580;28;20066;-57
2021/06/28 09:51:23;;;;;;;;;;;;;;;24.00;55.91;100865.22;5111526;28;20059;-55
2021/06/28 09:54:14;;;;;;;4.40;1.30;;;;;;;24.09;55.58;100867.66;5110554;28;19927;-56
2021/06/28 10:01:07;;;;;;;5.65;1.10;;;;;;;24.04;55.75;100856.78;5110469;28;20138;-53
2021/06/28 10:03:40;;;;;;;5.88;1.27;;;;;;;24.20;55.26;100865.66;5110406;28;20059;-56
2021/06/28 10:06:25;;;;;;;8.30;1.20;;;;;;;24.26;54.61;100862.03;5113545;28;20052;-53
2021/06/28 10:09:03;;;;;;;5.90;1.55;;;;;;;24.34;54.72;100865.63;5114176;28;20047;-55
2021/06/28 10:11:31;;;;;;;3.78;1.73;;;;;;;24.40;54.18;100869.66;5113135;28;20054;-54
2021/06/28 10:14:03;;;;;;;5.50;1.17;;;;;;;24.41;54.53;100865.63;5096002;28;20525;-54
2021/06/28 10:16:36;;;;;;;9.43;1.13;;;;;;;24.35;54.46;100870.88;5113790;28;20407;-58
2021/06/28 10:19:05;;;;;;;5.03;1.38;;;;;;;24.35;54.57;100870.06;5096310;28;20043;-55
2021/06/28 10:21:34;;;;;;;8.73;1.50;;;;;;;24.35;54.30;100872.88;5113630;28;20047;-55
2021/06/28 10:24:02;;;;;;;3.95;1.00;;;;;;;24.34;54.39;100874.06;5114187;28;20043;-53
2021/06/28 10:26:29;;;;;;;5.57;1.20;;;;;;;24.30;54.61;100876.09;5113573;28;20047;-53
2021/06/28 10:28:57;;;;;;;4.38;1.20;;;;;;;24.28;54.62;100872.88;5114007;28;20501;-56
2021/06/28 10:31:25;;;;;;;4.13;1.20;;;;;;;24.30;55.03;100878.91;5113529;28;20062;-55
2021/06/28 10:33:55;;;;;;;12.10;1.05;;;;;;;24.26;55.32;100873.28;5113552;28;20077;-55
2021/06/28 10:36:30;;;;;;;5.72;1.30;;;;;;;24.29;54.51;100875.28;5095230;28;20056;-53
2021/06/28 10:38:58;;;;;;;5.78;1.55;;;;;;;24.33;54.33;100867.66;5129659;27;20047;-59
2021/06/28 10:41:49;;;;;;;7.82;1.27;;;;;;;24.51;54.13;100864.84;5112965;28;20052;-58
2021/06/28 10:44:19;;;;;;;5.18;1.50;;;;;;;24.49;54.19;100858.78;5116988;27;20055;-55
2021/06/28 10:46:48;;;;;;;;;;;;;;;24.44;54.07;100860.00;5133685;27;20043;-58
2021/06/28 10:49:17;;;;;;;3.85;1.58;;;;;;;24.45;53.68;100858.78;5133866;27;20266;-57
2021/06/28 10:51:48;;;;;;;3.25;1.20;;;;;;;24.44;53.80;100859.22;5133984;27;20055;-54
2021/06/28 10:54:18;;;;;;;4.53;1.20;;;;;;;24.46;53.71;100857.56;5133132;27;20048;-54
2021/06/28 10:56:49;;;;;;;2.28;1.10;;;;;;;24.44;53.86;100862.81;5133093;27;20055;-53
2021/06/28 10:59:21;;;;;;;4.13;1.23;;;;;;;24.38;53.83;100846.72;5134495;27;20504;-57
2021/06/28 11:01:54;;;;;;;4.80;1.15;;;;;;;24.41;53.74;100852.34;5134794;27;20055;-55
2021/06/28 11:04:29;;;;;;;4.50;1.20;;;;;;;24.47;53.44;100847.94;5115880;27;20047;-55
2021/06/28 11:06:59;;;;;;;4.40;1.20;;;;;;;24.59;53.29;100854.34;5133871;27;20069;-58
2021/06/28 11:09:49;;;;;;;8.38;1.45;;;;;;;24.75;52.58;100840.66;5133991;27;20474;-55
2021/06/28 11:12:22;;;;;;;;;;;;;;;24.74;52.30;100844.69;5134605;27;20047;-51
2021/06/28 11:14:51;;;;;;;4.03;1.08;;;;;;;24.78;52.38;100839.84;5134284;27;20254;-52
2021/06/28 11:17:54;;;;;;;2.90;1.40;;;;;;;24.69;52.69;100839.44;5133782;27;20125;-49
2021/06/28 11:20:38;;;;;;;4.70;1.33;;;;;;;24.62;50.69;100834.63;5134159;27;20055;-53
2021/06/28 11:23:13;;;;;;;3.63;1.25;;;;;;;24.60;52.66;100845.47;5134394;27;20054;-55
2021/06/28 11:30:19;;;;;;;4.88;1.20;;;;;;;24.33;53.51;100841.50;5115009;27;20039;-56
2021/06/28 11:33:05;;;;;;;5.90;1.60;;;;;;;24.28;50.28;100841.91;5115438;27;20051;-53
2021/06/28 11:35:47;;;;;;;8.05;1.45;;;;;;;24.28;52.16;100839.91;5115335;27;20512;-52
2021/06/28 11:38:33;;;;;;;6.65;1.40;;;;;;;24.18;53.37;100837.09;5133137;27;20378;-52
2021/06/28 11:41:12;;;;;;;7.80;1.80;;;;;;;24.22;53.08;100835.88;5133652;27;20047;-54
2021/06/28 11:43:40;;;;;;;11.98;1.70;;;;;;;24.37;53.41;100847.94;5114991;27;20054;-51
2021/06/28 11:46:10;;;;;;;14.93;1.40;;;;;;;24.41;53.41;100840.28;5132737;27;20054;-54
2021/06/28 11:48:50;;;;;;;8.70;1.45;;;;;;;24.42;53.05;100842.72;5115405;27;20065;-51
2021/06/28 11:51:23;;;;;;;10.18;1.50;;;;;;;24.32;53.08;100842.72;5132730;27;20042;-57
2021/06/28 11:53:59;;;;;;;15.35;1.40;;;;;;;24.23;53.43;100840.28;5115416;27;20074;-51
2021/06/28 11:56:38;;;;;;;6.10;1.45;;;;;;;24.06;53.65;100846.72;5132717;27;20047;-56
2021/06/28 11:59:09;;;;;;;6.85;1.40;;;;;;;24.24;53.56;100836.28;5133113;27;20529;-55
2021/06/28 12:01:41;;;;;;;5.10;1.30;;;;;;;24.25;53.23;100843.50;5133337;27;20047;-58
2021/06/28 12:04:30;;;;;;;5.38;1.30;;;;;;;24.39;52.87;100840.69;5114791;27;20066;-61
2021/06/28 12:06:57;;;;;;;5.40;1.10;;;;;;;24.35;52.94;100836.28;5115524;27;20054;-58
2021/06/28 12:09:26;;;;;;;5.85;1.10;;;;;;;24.41;52.82;100831.81;5114654;27;20058;-57
2021/06/28 12:11:58;;;;;;;4.27;1.20;;;;;;;24.51;52.30;100829.00;5132293;27;20039;-59
2021/06/28 12:14:34;;;;;;;11.30;1.63;;;;;;;24.71;52.32;100834.22;5132476;27;20074;-56
2021/06/28 12:17:22;;;;;;;8.63;1.30;;;;;;;24.58;52.04;100839.47;5132142;27;20508;-51
2021/06/28 12:20:01;;;;;;;4.28;1.23;;;;;;;24.60;51.77;100839.06;5132633;27;20047;-52
2021/06/28 12:22:34;;;;;;;6.22;1.15;;;;;;;24.70;51.34;100832.63;5133145;27;20054;-54
2021/06/28 12:25:07;;;;;;;7.20;1.23;;;;;;;24.73;51.18;100832.63;5132475;27;20047;-53
2021/06/28 12:27:37;;;;;;;5.20;1.30;;;;;;;24.64;50.95;100839.84;5132277;27;20396;-50
2021/06/28 12:30:07;;;;;;;4.05;1.13;;;;;;;24.76;52.07;100833.84;5133121;27;20046;-53
2021/06/28 12:32:45;;;;;;;3.13;1.30;;;;;;;24.89;51.57;100824.53;5132374;27;20047;-51
2021/06/28 12:35:17;;;;;;;5.63;1.15;;;;;;;25.14;50.43;100827.25;5132117;27;20043;-51
2021/06/28 12:37:52;;;;;;;3.15;1.20;;;;;;;25.28;50.98;100827.19;5132502;27;20054;-52
2021/06/28 12:40:37;;;;;;;9.32;1.23;;;;;;;25.17;50.76;100827.25;5133281;27;20058;-49
2021/06/28 12:43:13;;;;;;;1.98;0.98;;;;;;;24.89;51.36;100824.53;5132258;27;20047;-52
2021/06/28 12:45:49;;;;;;;5.57;1.27;;;;;;;24.88;51.93;100824.94;5132059;27;20409;-51
2021/06/28 12:48:19;;;;;;;3.25;1.00;;;;;;;24.71;50.06;100823.75;5132209;27;20121;-52
2021/06/28 12:50:53;;;;;;;4.72;1.13;;;;;;;24.86;50.74;100825.31;5132953;28;20046;-49